Terminal Aerodrome Forecast
Issued by NWS

Home | Current Version | Previous Version | Text Only | Print | Product List | Glossary On
Versions: 1 2 3 4 5 6 7 8 9 10 11 12 13 14 15 16 17 18 19 20
645
FTUS45 KRIW 240520
TAFJAC
TAF
KJAC 240520Z 2406/2506 VRB06KT P6SM FEW060 SCT090
     FM241900 24011KT P6SM VCTS SCT060CB
     FM242100 24014G24KT 5SM -SHRA VCTS SCT025 OVC035CB
     FM250100 VRB06KT P6SM VCSH SCT040
      AMD LTD TO CLD VIS AND WIND=

USA.gov is the U.S. government's official web portal to all federal, state and local government web resources and services.